Terminal Aerodrome Forecast
Issued by NWS

Home | Current Version | Previous Version | Text Only | Print | Product List | Glossary On
Versions: 1 2 3 4 5 6 7 8 9 10 11 12 13 14 15 16 17 18 19 20 21 22 23 24 25 26 27 28 29 30 31 32 33 34 35 36 37 38
000
FTUS43 KGRB 241258 AAA
TAFRHI
TAF AMD
KRHI 241258Z 2413/2512 28007KT P6SM BKN018
     FM241600 29010G16KT P6SM -SHRA BKN025
     FM242300 28006KT P6SM SCT025 BKN045
      TEMPO 2423/2503 -SHRA BKN025
     FM250900 28004KT P6SM BKN010=

USA.gov is the U.S. government's official web portal to all federal, state and local government web resources and services.